PWSweather.com
Personal Weather Stations
Station Observations
SONYA
Sergiev PosadRU

Sergiev PosadRU

Lat: 56.28148651, Lon: 38.05462646

Elevation: 741

Station Type: Fine offset WH1091

Latest ConditionsUpdated 1:49:00 AM GMT+03:03 Saturday, Nov 18, 2017
Currently Today's Max Today's Min Today's Average
Temperature 34.2°F1.2°C 34.7°F1.5°C 34.2°F1.2°C 34.6°F1.4°C
Dew Point 29.8°F-1.2°C 29.8°F-1.2°C 29.2°F-1.6°C 29.4°F-1.4°C
Winds 2.2 mph WNW3.5 kmh WNW 9.8 mph SE15.8 kmh SE - 6.5 mph 10.5 kmh
Wind Gusts 3.8 mph6.1 kmh 15.9 mph25.6 kmh - -
Humidity 78% 78% 74% 75%
Pressure 29.21 in989.2 mb 29.22 in989.5 mb 29.21 in989.2 mb -
Precipitation - 0.02 in0.5 mm - -
Hour Temp Dew Point Humidity Winds Wind Gusts Pressure Precip Precip Rate Daily Precip Total
01:49 AM 34.2°F1.2°C 29.8°F-1.2°C 78% 2.2 mph WNW3.5 kmh WNW 3.8 mph6.1 kmh 29.21 in989.2 mb 0.00 in0.0 mm 0.00 in0.0 mm 0.02 in0.5 mm
01:44 AM 34.3°F1.3°C 29.7°F-1.3°C 77% 5.4 mph S8.7 kmh S 8.3 mph13.4 kmh 29.21 in989.2 mb 0.00 in0.0 mm 0.00 in0.0 mm 0.02 in0.5 mm
01:39 AM 34.5°F1.4°C 29.7°F-1.3°C 76% 6.9 mph SE11.1 kmh SE 14.5 mph23.3 kmh 29.21 in989.2 mb 0.00 in0.0 mm 0.00 in0.0 mm 0.02 in0.5 mm
01:38 AM 34.5°F1.4°C 29.4°F-1.4°C 75% 6.9 mph S11.1 kmh S 9.2 mph14.8 kmh 29.21 in989.2 mb 0.00 in0.0 mm 0.00 in0.0 mm 0.02 in0.5 mm
01:34 AM 34.7°F1.5°C 29.6°F-1.3°C 75% 7.6 mph S12.2 kmh S 12.1 mph19.5 kmh 29.21 in989.2 mb 0.00 in0.0 mm 0.00 in0.0 mm 0.02 in0.5 mm
01:33 AM 34.5°F1.4°C 29.4°F-1.4°C 75% 6.9 mph SW11.1 kmh SW 9.8 mph15.8 kmh 29.21 in989.2 mb 0.00 in0.0 mm 0.00 in0.0 mm 0.02 in0.5 mm
01:29 AM 34.7°F1.5°C 29.6°F-1.3°C 75% 6.0 mph SW9.7 kmh SW 10.7 mph17.2 kmh 29.21 in989.2 mb 0.00 in0.0 mm 0.00 in0.0 mm 0.02 in0.5 mm
01:24 AM 34.7°F1.5°C 29.6°F-1.3°C 75% 8.3 mph SSW13.4 kmh SSW 13.6 mph21.9 kmh 29.21 in989.2 mb 0.00 in0.0 mm 0.00 in0.0 mm 0.02 in0.5 mm
01:19 AM 34.7°F1.5°C 29.4°F-1.4°C 74% 7.6 mph S12.2 kmh S 10.7 mph17.2 kmh 29.21 in989.2 mb 0.00 in0.0 mm 0.00 in0.0 mm 0.02 in0.5 mm
01:18 AM 34.7°F1.5°C 29.4°F-1.4°C 74% 9.8 mph SE15.8 kmh SE 15.9 mph25.6 kmh 29.21 in989.2 mb 0.00 in0.0 mm 0.00 in0.0 mm 0.02 in0.5 mm
01:14 AM 34.7°F1.5°C 29.4°F-1.4°C 74% 7.6 mph S12.2 kmh S 12.1 mph19.5 kmh 29.21 in989.2 mb 0.00 in0.0 mm 0.00 in0.0 mm 0.04 in1.0 mm
01:13 AM 34.7°F1.5°C 29.4°F-1.4°C 74% 6.0 mph NW9.7 kmh NW 10.7 mph17.2 kmh 29.21 in989.2 mb 0.00 in0.0 mm 0.00 in0.0 mm 0.02 in0.5 mm
01:09 AM 34.7°F1.5°C 29.4°F-1.4°C 74% 7.6 mph SW12.2 kmh SW 9.8 mph15.8 kmh 29.21 in989.2 mb 0.00 in0.0 mm 0.00 in0.0 mm 0.04 in1.0 mm
01:04 AM 34.7°F1.5°C 29.4°F-1.4°C 74% 7.6 mph SW12.2 kmh SW 9.8 mph15.8 kmh 29.21 in989.2 mb 0.00 in0.0 mm 0.00 in0.0 mm 0.04 in1.0 mm
12:59 AM 34.7°F1.5°C 29.4°F-1.4°C 74% 7.6 mph S12.2 kmh S 9.8 mph15.8 kmh 29.21 in989.2 mb 0.00 in0.0 mm 0.00 in0.0 mm 0.04 in1.0 mm
12:58 AM 34.7°F1.5°C 29.4°F-1.4°C 74% 6.0 mph SW9.7 kmh SW 9.2 mph14.8 kmh 29.21 in989.2 mb 0.00 in0.0 mm 0.00 in0.0 mm 0.04 in1.0 mm
12:54 AM 34.7°F1.5°C 29.4°F-1.4°C 74% 5.4 mph NE8.7 kmh NE 8.3 mph13.4 kmh 29.21 in989.2 mb 0.00 in0.0 mm 0.00 in0.0 mm 0.04 in1.0 mm
12:53 AM 34.7°F1.5°C 29.4°F-1.4°C 74% 6.9 mph SW11.1 kmh SW 10.7 mph17.2 kmh 29.21 in989.2 mb 0.00 in0.0 mm 0.00 in0.0 mm 0.04 in1.0 mm
12:49 AM 34.7°F1.5°C 29.4°F-1.4°C 74% 7.6 mph S12.2 kmh S 12.1 mph19.5 kmh 29.21 in989.2 mb 0.00 in0.0 mm 0.00 in0.0 mm 0.04 in1.0 mm
12:44 AM 34.7°F1.5°C 29.4°F-1.4°C 74% 5.4 mph S8.7 kmh S 7.6 mph12.2 kmh 29.21 in989.2 mb 0.00 in0.0 mm 0.00 in0.0 mm 0.04 in1.0 mm
12:39 AM 34.7°F1.5°C 29.4°F-1.4°C 74% 7.6 mph S12.2 kmh S 9.8 mph15.8 kmh 29.21 in989.2 mb 0.00 in0.0 mm 0.00 in0.0 mm 0.04 in1.0 mm
12:38 AM 34.7°F1.5°C 29.4°F-1.4°C 74% 5.4 mph S8.7 kmh S 7.6 mph12.2 kmh 29.21 in989.2 mb 0.00 in0.0 mm 0.00 in0.0 mm 0.04 in1.0 mm
12:34 AM 34.7°F1.5°C 29.4°F-1.4°C 74% 8.3 mph SSW13.4 kmh SSW 10.7 mph17.2 kmh 29.21 in989.2 mb 0.00 in0.0 mm 0.00 in0.0 mm 0.04 in1.0 mm
12:33 AM 34.7°F1.5°C 29.4°F-1.4°C 74% 5.4 mph E8.7 kmh E 10.7 mph17.2 kmh 29.21 in989.2 mb 0.00 in0.0 mm 0.00 in0.0 mm 0.04 in1.0 mm
12:29 AM 34.7°F1.5°C 29.4°F-1.4°C 74% 6.9 mph S11.1 kmh S 15.9 mph25.6 kmh 29.21 in989.2 mb 0.00 in0.0 mm 0.00 in0.0 mm 0.04 in1.0 mm
12:24 AM 34.5°F1.4°C 29.2°F-1.6°C 74% 6.0 mph SE9.7 kmh SE 8.3 mph13.4 kmh 29.21 in989.2 mb 0.00 in0.0 mm 0.00 in0.0 mm 0.04 in1.0 mm
12:19 AM 34.5°F1.4°C 29.2°F-1.6°C 74% 5.4 mph SW8.7 kmh SW 7.6 mph12.2 kmh 29.22 in989.5 mb 0.00 in0.0 mm 0.00 in0.0 mm 0.04 in1.0 mm
12:18 AM 34.5°F1.4°C 29.2°F-1.6°C 74% 4.5 mph S7.2 kmh S 6.9 mph11.1 kmh 29.22 in989.5 mb 0.00 in0.0 mm 0.00 in0.0 mm 0.04 in1.0 mm
12:14 AM 34.5°F1.4°C 29.4°F-1.4°C 75% 6.9 mph S11.1 kmh S 12.1 mph19.5 kmh 29.21 in989.2 mb 0.00 in0.0 mm 0.00 in0.0 mm 0.04 in1.0 mm
12:13 AM 34.3°F1.3°C 29.3°F-1.5°C 75% 7.6 mph S12.2 kmh S 9.8 mph15.8 kmh 29.21 in989.2 mb 0.00 in0.0 mm 0.00 in0.0 mm 0.04 in1.0 mm
12:09 AM 34.3°F1.3°C 29.3°F-1.5°C 75% 5.4 mph SW8.7 kmh SW 8.3 mph13.4 kmh 29.22 in989.5 mb 0.00 in0.0 mm 0.00 in0.0 mm 0.04 in1.0 mm
12:04 AM 34.3°F1.3°C 29.3°F-1.5°C 75% 4.5 mph S7.2 kmh S 6.0 mph9.7 kmh 29.21 in989.2 mb 0.00 in0.0 mm 0.00 in0.0 mm 0.04 in1.0 mm